NK76 weather

Grammar Airport
Geneva, New York, United States

Public forecast

Using degrees Fahrenheit for public forecast. Weather courtesy of forecast.io.

Closest aviation weather report (METAR) to Grammar Airport

Closest report is Penn Yan Airport, 14.7 nm (27.3 km) S. Retrieved 2019/10/21 05:53 UTC (55 minutes ago):

KPEO 210553Z AUTO 23004KT 6SM BR CLR 08/07 A3003 RMK AO2 SLP170 T00830072 10106 20067 51010

Closest aviation forecast (TAF) to Grammar Airport

Closest forecast is Greater Rochester International Airport, 30.7 nm (56.9 km) WNW. Retrieved 2019/10/21 06:54 UTC (0 seconds ago):

TAF KROC 210553Z 2106/2206 23004KT P6SM SKC FM211000 VRB04KT P6SM SCT250 FM211400 10006KT P6SM SCT250 FM212000 10010KT P6SM BKN250 FM220300 14012KT P6SM BKN200 WS015/17040KT